Armistead, Louisiana
Current Conditions -  °F | °C
As of 8:35 PM on Friday 31 Oct 2014 (Local Time) from KIER Reporting Station
Clear Clear  
Wind Chill: 59°   Ceiling: Unl
Heat Index: 59°   Visibility: 10mi
Dew Point: 47°   Wind: 9mph
Humidity: 64%   Direction: 360°N
Pressure: 30.24"   Gusts: NA
Location:  32.1001°N, 93.2912°W
Report Text: KIER 010135Z AUTO 36008KT 10SM CLR 15/08 A3024 RMK AO2 T01500082
Loading
Personal Weather Stations






























Interactive Weather Map
Tropical Storm Tracking
New forecast layout! Learn more

10-Day Weather Forecast

Advertisements
Track Severe Weather on mobile